AirNav   Pilot Hours Calculator
 
 1461 users online  

CA11 Bodad Airport
Chilcoot, California, USA

GOING TO CHILCOOT?


FAA INFORMATION EFFECTIVE 02 DECEMBER 2021

Location

FAA Identifier: CA11
Lat/Long: 39-59-49.9700N 120-13-00.6850W
39-59.832833N 120-13.011417W
39.9972139,-120.2168569
(estimated)
Elevation: 5909 ft. / 1801 m (estimated)
Time zone: UTC -8 (UTC -7 during Daylight Saving Time)
Zip code: 96109

Airport Operations

Airport use: Private use. Permission required prior to landing
Activation date: 03/2015
Control tower: no
ARTCC: OAKLAND CENTER
FSS: RENO FLIGHT SERVICE STATION
Attendance: 
Wind indicator: yes
Segmented circle: no

Airport Communications

WX AWOS-2 at O02 (12 nm SW): 119.35 (530-832-6942)
WX AWOS-3 at AHC (16 nm N): 118.825 (530-827-4520)

Nearby radio navigation aids

VOR radial/distance  VOR name  Freq  Var
AHCr173/16.5AMEDEE VOR/DME109.0017E
FMGr301/38.1MUSTANG VORTAC117.9016E

Airport Services

Runway Information

Runway 15/33

Dimensions: 1032 x 40 ft. / 315 x 12 m
Surface: turf
RUNWAY 15  RUNWAY 33
Latitude: 39-59.914500N39-59.751167N
Longitude: 120-13.042167W120-12.980667W
Elevation: 5909.0 ft.5906.0 ft.
Traffic pattern: leftleft
Touchdown point: yes, no lightsyes, no lights

Airport Ownership and Management from official FAA records

Ownership: Privately-owned
Owner: BO ELLIS
255 N SIERRA ST, #1213
RENO, NV 89501
Phone 208-255-6346
Manager: BO ELLIS
255 N SIERRA ST, #1213
RENO, NV 89501
Phone 208-255-6346

Airport Operational Statistics

Aircraft based on the field: 1
Single engine airplanes: 1
    

Additional Remarks

FOR CD CTC OAKLAND ARTCC AT 510-745-3380.

Instrument Procedures

There are no published instrument procedures at CA11.

Some nearby airports with instrument procedures:

O02 - Nervino Airport (12 nm SW)
KAHC - Amedee Army Airfield (16 nm N)
KRTS - Reno/Stead Airport (25 nm SE)
KSVE - Susanville Municipal Airport (28 nm NW)
KRNO - Reno/Tahoe International Airport (36 nm SE)
 
Loc | Ops | Rwys | IFR | FBO | Links
Com | Nav | Svcs | Stats | Notes
Aerial photo
No photo
 
Airport distance calculator
Flying to Bodad Airport? Find the distance to fly.

From to CA11

Sunrise and sunset
Times for 06-Dec-2021
 Local
(UTC-8)
 Zulu
(UTC)
Morning civil twilight06:3914:39
Sunrise07:0915:09
Sunset16:3500:35
Evening civil twilight17:0501:05

Current date and time
Zulu (UTC)  06-Dec-2021 17:52:18
Local (UTC-8)  06-Dec-2021 09:52:18
 
METAR
KRTS 
25nm SE 
061735Z AUTO 00000KT 10SM FEW041 SCT060 OVC100 02/M04 A3018 RMK AO2
KSVE 
27nm NW 
061735Z AUTO 05003KT 10SM OVC080 03/M02 A3018 RMK AO2
KRNO 
37nm SE 
061655Z 00000KT 10SM SCT110 OVC190 03/M03 A3018 RMK AO2 SLP216 T00281033
KTRK 
41nm S 
061645Z AUTO 00000KT 10SM SKC M02/M04 A3022
KBLU 
48nm SW 
061652Z AUTO 00000KT 10SM BKN110 11/M03 A3019 RMK AO2 SLP178 T01111033
TAF
KRNO 
37nm SE 
061121Z 0612/0712 VRB04KT P6SM BKN130 OVC200 FM062200 28010KT P6SM VCSH BKN070 OVC100 FM070000 30008KT P6SM -RA BKN045 OVC070 FM070300 VRB04KT P6SM VCSH SCT040 OVC070
KTRK 
41nm S 
061121Z 0612/0712 VRB04KT P6SM BKN100 OVC180 FM062100 24011KT P6SM -RA BKN035 OVC050 FM070300 VRB03KT P6SM VCSH SCT030 OVC050
NOTAMs
Click for the latest NOTAMs
NOTAMs are issued by the DoD/FAA and will open in a separate window not controlled by AirNav.

 

 
 

Would you like to see your business listed on this page?

 If your business provides an interesting product or service to pilots, flight crews, aircraft, or users of the Bodad Airport, you should consider listing it here.  To start the listing process, click on the button below
 
Add a business
 

Other Pages about Bodad Airport

Update a link
 
Copyright © AirNav, LLC. All rights reserved. Privacy Policy  Contact